KJST/JST METAR and TAF weather

Enter ICAO airport designator
Station Type Date Time Source
KJST METAR 2018/12/17 03:28 UTC NOAA

KJST 170328Z AUTO 27009KT 1/4SM FG VV002 03/02 A2990 RMK AO2 T00280017


Station Type Date Time Source
KJST Decoded METAR 2018/12/17 03:28 UTC NOAA

JOHNSTOWN-CAMBRIA CO AIRPORT , PA, United States (KJST) 40-19N 078-50W 694M
Dec 16, 2018 - 10:28 PM EST / 2018.12.17 0328 UTC
Wind: from the W (270 degrees) at 10 MPH (9 KT):0
Visibility: 1/4 mile(s):0
Sky conditions: obscured
Weather: fog
Temperature: 37.0 F (2.8 C)
Dew Point: 35.1 F (1.7 C)
Relative Humidity: 92%
Pressure (altimeter): 29.9 in. Hg (1012 hPa)
ob: KJST 170328Z AUTO 27009KT 1/4SM FG VV002 03/02 A2990 RMK AO2 T00280017
cycle: 3

Station Type Date Time Source
KJST TAF 2018/12/17 02:58 UTC NOAA

TAF
AMD KJST 170157Z 1702/1724 28010G18KT 1/2SM FG OVC002
TEMPO 1704/1707 1/4SM FG OVC001
FM170800 27015G25KT P6SM OVC008
FM171400 28018G28KT P6SM OVC015


Example: see airport list